Terminal Aerodrome Forecast
Issued by NWS

Home | Current Version | Previous Version | Graphics & Text | Print | Product List | Glossary On
Versions: 1 2 3 4 5 6 7 8 9 10 11 12 13 14 15 16 17 18 19 20
000
FTUS42 KMHX 271100 AAC
TAFOAJ
TAF AMD
KOAJ 271100Z 2711/2806 23003KT 2SM BR SKC
      TEMPO 2711/2712 3SM BR
     FM271300 24006KT P6SM SKC
     FM271600 23012KT P6SM SCT040
     FM280100 21010KT P6SM SKC
      AMD LTD TO CLD VIS AND WIND=

USA.gov is the U.S. government's official web portal to all federal, state and local government web resources and services.